sensor_id;sensor_type;location;lat;lon;timestamp;P1;P4;P2;P0;N10;N4;N25;N1;N05;TS
78557;SPS30;68325;52.124;5.424;2024-01-16T00:01:32;4.36;3.90;2.96;1.73;13.91;13.86;13.61;12.39;8.84;0.91
78557;SPS30;68325;52.124;5.424;2024-01-16T00:03:58;4.66;4.16;3.14;1.80;14.49;14.43;14.16;12.83;9.06;0.92
78557;SPS30;68325;52.124;5.424;2024-01-16T00:06:25;4.81;4.28;3.21;1.82;14.66;14.59;14.31;12.93;9.04;0.94
78557;SPS30;68325;52.124;5.424;2024-01-16T00:08:52;4.86;4.34;3.28;1.88;15.18;15.11;14.83;13.46;9.51;0.94
78557;SPS30;68325;52.124;5.424;2024-01-16T00:11:18;4.76;4.26;3.25;1.91;15.40;15.34;15.06;13.75;9.87;0.91
78557;SPS30;68325;52.124;5.424;2024-01-16T00:13:45;4.21;3.76;2.85;1.66;13.36;13.31;13.07;11.89;8.47;0.89
78557;SPS30;68325;52.124;5.424;2024-01-16T00:16:12;4.06;3.65;2.79;1.67;13.43;13.37;13.15;12.04;8.72;0.86
78557;SPS30;68325;52.124;5.424;2024-01-16T00:18:38;4.22;3.80;2.93;1.77;14.25;14.20;13.96;12.83;9.36;0.85
78557;SPS30;68325;52.124;5.424;2024-01-16T00:21:05;4.05;3.64;2.80;1.69;13.57;13.52;13.30;12.20;8.89;0.86
78557;SPS30;68325;52.124;5.424;2024-01-16T00:23:31;4.42;3.96;3.01;1.76;14.18;14.12;13.87;12.64;9.04;0.88
78557;SPS30;68325;52.124;5.424;2024-01-16T00:25:59;4.48;4.00;3.02;1.74;14.00;13.94;13.68;12.42;8.78;0.89
78557;SPS30;68325;52.124;5.424;2024-01-16T00:28:25;4.20;3.77;2.88;1.71;13.74;13.69;13.45;12.30;8.87;0.87
78557;SPS30;68325;52.124;5.424;2024-01-16T00:30:52;3.89;3.50;2.72;1.67;13.43;13.38;13.17;12.15;8.95;0.85
78557;SPS30;68325;52.124;5.424;2024-01-16T00:33:18;4.04;3.63;2.79;1.68;13.52;13.46;13.24;12.15;8.84;0.85
78557;SPS30;68325;52.124;5.424;2024-01-16T00:35:45;3.85;3.46;2.69;1.65;13.29;13.25;13.04;12.02;8.86;0.85
78557;SPS30;68325;52.124;5.424;2024-01-16T00:38:12;4.07;3.66;2.83;1.73;13.93;13.88;13.66;12.58;9.24;0.86
78557;SPS30;68325;52.124;5.424;2024-01-16T00:40:38;4.03;3.63;2.83;1.75;14.11;14.06;13.84;12.79;9.47;0.86
78557;SPS30;68325;52.124;5.424;2024-01-16T00:43:05;3.73;3.38;2.67;1.71;13.75;13.71;13.52;12.59;9.49;0.83
78557;SPS30;68325;52.124;5.424;2024-01-16T00:45:32;3.85;3.51;2.82;1.88;15.14;15.10;14.92;14.01;10.78;0.79
78557;SPS30;68325;52.124;5.424;2024-01-16T00:47:58;3.57;3.28;2.68;1.85;14.82;14.78;14.62;13.82;10.79;0.76
78557;SPS30;68325;52.124;5.424;2024-01-16T00:50:25;3.50;3.21;2.62;1.81;14.52;14.48;14.32;13.54;10.57;0.76
78557;SPS30;68325;52.124;5.424;2024-01-16T00:52:53;3.81;3.49;2.83;1.92;15.40;15.35;15.18;14.30;11.09;0.76
78557;SPS30;68325;52.124;5.424;2024-01-16T00:55:19;4.23;3.85;3.08;2.04;16.36;16.32;16.11;15.10;11.56;0.76
78557;SPS30;68325;52.124;5.424;2024-01-16T00:57:46;3.67;3.35;2.70;1.80;14.49;14.45;14.28;13.41;10.33;0.77
78557;SPS30;68325;52.124;5.424;2024-01-16T01:00:13;3.86;3.52;2.82;1.87;15.03;14.99;14.80;13.88;10.64;0.80
78557;SPS30;68325;52.124;5.424;2024-01-16T01:02:39;3.61;3.29;2.64;1.76;14.13;14.09;13.92;13.07;10.04;0.80
78557;SPS30;68325;52.124;5.424;2024-01-16T01:05:06;3.26;2.99;2.45;1.69;13.58;13.55;13.40;12.68;9.91;0.76
78557;SPS30;68325;52.124;5.424;2024-01-16T01:07:33;3.34;3.08;2.53;1.77;14.23;14.20;14.05;13.33;10.48;0.76
78557;SPS30;68325;52.124;5.424;2024-01-16T01:10:00;3.87;3.53;2.86;1.93;15.47;15.43;15.25;14.35;11.10;0.79
78557;SPS30;68325;52.124;5.424;2024-01-16T01:12:26;3.49;3.18;2.56;1.70;13.69;13.65;13.48;12.65;9.73;0.80
78557;SPS30;68325;52.124;5.424;2024-01-16T01:14:53;3.50;3.19;2.55;1.69;13.54;13.50;13.33;12.50;9.57;0.80
78557;SPS30;68325;52.124;5.424;2024-01-16T01:17:20;3.81;3.48;2.81;1.88;15.11;15.07;14.89;13.99;10.79;0.80
78557;SPS30;68325;52.124;5.424;2024-01-16T01:19:46;4.04;3.68;2.94;1.94;15.61;15.56;15.36;14.39;11.01;0.82
78557;SPS30;68325;52.124;5.424;2024-01-16T01:22:13;3.97;3.60;2.84;1.82;14.63;14.58;14.38;13.38;10.09;0.83
78557;SPS30;68325;52.124;5.424;2024-01-16T01:24:40;3.71;3.35;2.62;1.64;13.17;13.13;12.93;11.97;8.91;0.85
78557;SPS30;68325;52.124;5.424;2024-01-16T01:27:06;4.45;4.01;3.12;1.93;15.57;15.51;15.27;14.11;10.45;0.86
78557;SPS30;68325;52.124;5.424;2024-01-16T01:29:33;4.24;3.83;2.99;1.86;14.96;14.91;14.68;13.58;10.08;0.86
78557;SPS30;68325;52.124;5.424;2024-01-16T01:32:00;3.71;3.37;2.66;1.70;13.70;13.66;13.47;12.54;9.46;0.84
78557;SPS30;68325;52.124;5.424;2024-01-16T01:34:26;3.39;3.09;2.48;1.65;13.26;13.22;13.06;12.25;9.41;0.81
78557;SPS30;68325;52.124;5.424;2024-01-16T01:36:53;3.37;3.09;2.54;1.76;14.16;14.12;13.97;13.23;10.37;0.77
78557;SPS30;68325;52.124;5.424;2024-01-16T01:39:20;3.35;3.08;2.52;1.75;14.04;14.01;13.86;13.12;10.27;0.78
78557;SPS30;68325;52.124;5.424;2024-01-16T01:41:46;3.17;2.90;2.35;1.60;12.87;12.83;12.69;11.96;9.29;0.81
78557;SPS30;68325;52.124;5.424;2024-01-16T01:44:13;3.28;3.00;2.43;1.64;13.21;13.17;13.02;12.27;9.50;0.80
78557;SPS30;68325;52.124;5.424;2024-01-16T01:46:42;2.81;2.58;2.11;1.46;11.74;11.71;11.58;10.96;8.57;0.78
78557;SPS30;68325;52.124;5.424;2024-01-16T01:49:12;2.91;2.67;2.19;1.51;12.14;12.11;11.98;11.34;8.87;0.77
78557;SPS30;68325;52.124;5.424;2024-01-16T01:51:40;2.92;2.68;2.19;1.51;12.08;12.05;11.92;11.26;8.79;0.78
78557;SPS30;68325;52.124;5.424;2024-01-16T01:54:07;2.65;2.43;1.99;1.37;11.01;10.98;10.87;10.27;8.03;0.77
78557;SPS30;68325;52.124;5.424;2024-01-16T01:56:34;2.88;2.64;2.15;1.48;11.86;11.83;11.70;11.05;8.62;0.78
78557;SPS30;68325;52.124;5.424;2024-01-16T01:59:01;3.00;2.74;2.23;1.52;12.19;12.15;12.02;11.33;8.80;0.80
78557;SPS30;68325;52.124;5.424;2024-01-16T02:01:29;3.07;2.81;2.26;1.52;12.20;12.17;12.02;11.30;8.72;0.81
78557;SPS30;68325;52.124;5.424;2024-01-16T02:03:58;3.07;2.79;2.23;1.47;11.83;11.79;11.64;10.90;8.34;0.81
78557;SPS30;68325;52.124;5.424;2024-01-16T02:06:25;3.28;2.97;2.34;1.49;11.96;11.92;11.75;10.92;8.20;0.84
78557;SPS30;68325;52.124;5.424;2024-01-16T02:08:52;3.14;2.84;2.23;1.42;11.40;11.37;11.20;10.41;7.81;0.84
78557;SPS30;68325;52.124;5.424;2024-01-16T02:11:19;3.10;2.82;2.23;1.44;11.59;11.55;11.39;10.63;8.04;0.81
78557;SPS30;68325;52.124;5.424;2024-01-16T02:13:46;2.19;1.98;1.57;1.02;8.19;8.16;8.05;7.51;5.69;0.82
78557;SPS30;68325;52.124;5.424;2024-01-16T02:16:22;2.17;1.96;1.54;0.97;7.79;7.76;7.65;7.10;5.30;0.85
78557;SPS30;68325;52.124;5.424;2024-01-16T02:18:50;1.85;1.67;1.29;0.78;6.28;6.25;6.15;5.65;4.13;0.86
78557;SPS30;68325;52.124;5.424;2024-01-16T02:21:20;2.26;2.04;1.58;0.98;7.87;7.84;7.72;7.13;5.26;0.85
78557;SPS30;68325;52.124;5.424;2024-01-16T02:23:48;2.76;2.50;1.98;1.26;10.17;10.13;9.99;9.30;7.01;0.81
78557;SPS30;68325;52.124;5.424;2024-01-16T02:26:15;3.31;3.00;2.36;1.51;12.15;12.11;11.94;11.11;8.37;0.82
78557;SPS30;68325;52.124;5.424;2024-01-16T02:28:43;2.83;2.58;2.06;1.35;10.86;10.82;10.68;10.00;7.63;0.80
78557;SPS30;68325;52.124;5.424;2024-01-16T02:31:10;3.15;2.87;2.32;1.56;12.49;12.46;12.31;11.57;8.93;0.78
78557;SPS30;68325;52.124;5.424;2024-01-16T02:33:37;2.69;2.47;2.03;1.41;11.35;11.32;11.20;10.61;8.33;0.75
78557;SPS30;68325;52.124;5.424;2024-01-16T02:36:04;2.46;2.28;1.91;1.39;11.14;11.12;11.02;10.52;8.40;0.73
78557;SPS30;68325;52.124;5.424;2024-01-16T02:38:31;2.51;2.33;1.97;1.44;11.53;11.50;11.40;10.91;8.74;0.73
78557;SPS30;68325;52.124;5.424;2024-01-16T02:40:57;2.52;2.35;2.00;1.49;11.90;11.88;11.79;11.31;9.12;0.71
78557;SPS30;68325;52.124;5.424;2024-01-16T02:43:24;2.49;2.33;1.99;1.51;12.09;12.06;11.98;11.52;9.35;0.70
78557;SPS30;68325;52.124;5.424;2024-01-16T02:45:52;2.51;2.35;2.02;1.53;12.24;12.22;12.13;11.67;9.47;0.70
78557;SPS30;68325;52.124;5.424;2024-01-16T02:48:19;2.43;2.28;1.96;1.49;11.95;11.93;11.85;11.41;9.28;0.68
78557;SPS30;68325;52.124;5.424;2024-01-16T02:50:46;2.67;2.49;2.14;1.61;12.94;12.91;12.82;12.33;10.00;0.68
78557;SPS30;68325;52.124;5.424;2024-01-16T02:53:14;2.76;2.56;2.16;1.59;12.76;12.73;12.62;12.08;9.70;0.69
78557;SPS30;68325;52.124;5.424;2024-01-16T02:55:41;2.47;2.30;1.96;1.46;11.70;11.68;11.58;11.12;8.98;0.68
78557;SPS30;68325;52.124;5.424;2024-01-16T02:58:07;2.63;2.46;2.10;1.59;12.72;12.70;12.60;12.12;9.83;0.68
78557;SPS30;68325;52.124;5.424;2024-01-16T03:00:34;2.31;2.17;1.87;1.43;11.49;11.47;11.39;10.99;8.96;0.69
78557;SPS30;68325;52.124;5.424;2024-01-16T03:03:01;2.10;1.96;1.67;1.25;10.01;9.99;9.91;9.51;7.69;0.71
78557;SPS30;68325;52.124;5.424;2024-01-16T03:05:27;2.25;2.10;1.78;1.32;10.62;10.60;10.51;10.08;8.13;0.73
78557;SPS30;68325;52.124;5.424;2024-01-16T03:07:54;1.86;1.73;1.46;1.08;8.66;8.64;8.57;8.21;6.60;0.74
78557;SPS30;68325;52.124;5.424;2024-01-16T03:10:21;1.62;1.51;1.29;0.97;7.74;7.73;7.67;7.37;5.96;0.73
78557;SPS30;68325;52.124;5.424;2024-01-16T03:12:48;1.66;1.56;1.34;1.02;8.21;8.20;8.14;7.84;6.39;0.71
78557;SPS30;68325;52.124;5.424;2024-01-16T03:15:14;1.72;1.61;1.38;1.04;8.31;8.30;8.23;7.92;6.42;0.72
78557;SPS30;68325;52.124;5.424;2024-01-16T03:17:41;1.78;1.65;1.41;1.04;8.38;8.36;8.29;7.95;6.41;0.74
78557;SPS30;68325;52.124;5.424;2024-01-16T03:20:08;1.68;1.56;1.32;0.98;7.83;7.82;7.75;7.43;5.97;0.73
78557;SPS30;68325;52.124;5.424;2024-01-16T03:22:35;1.20;1.11;0.94;0.70;5.58;5.57;5.52;5.29;4.25;0.72
78557;SPS30;68325;52.124;5.424;2024-01-16T03:25:01;1.13;1.05;0.90;0.67;5.40;5.39;5.35;5.14;4.16;0.70
78557;SPS30;68325;52.124;5.424;2024-01-16T03:27:28;1.05;0.98;0.84;0.63;5.05;5.04;5.00;4.80;3.89;0.70
78557;SPS30;68325;52.124;5.424;2024-01-16T03:29:55;1.20;1.11;0.93;0.67;5.40;5.39;5.34;5.10;4.07;0.73
78557;SPS30;68325;52.124;5.424;2024-01-16T03:32:22;1.27;1.18;0.98;0.71;5.68;5.67;5.61;5.35;4.26;0.74
78557;SPS30;68325;52.124;5.424;2024-01-16T03:34:49;0.97;0.90;0.76;0.55;4.42;4.41;4.37;4.18;3.34;0.74
78557;SPS30;68325;52.124;5.424;2024-01-16T03:37:16;1.13;1.04;0.86;0.61;4.87;4.86;4.81;4.57;3.61;0.76
78557;SPS30;68325;52.124;5.424;2024-01-16T03:39:43;1.28;1.17;0.95;0.65;5.24;5.22;5.17;4.87;3.79;0.78
78557;SPS30;68325;52.124;5.424;2024-01-16T03:42:11;1.11;1.02;0.83;0.56;4.53;4.52;4.47;4.21;3.28;0.77
78557;SPS30;68325;52.124;5.424;2024-01-16T03:44:41;1.31;1.20;0.98;0.67;5.37;5.36;5.30;5.00;3.89;0.77
78557;SPS30;68325;52.124;5.424;2024-01-16T03:47:08;1.19;1.09;0.88;0.60;4.82;4.81;4.75;4.48;3.48;0.77
78557;SPS30;68325;52.124;5.424;2024-01-16T03:49:35;1.05;0.96;0.78;0.54;4.30;4.29;4.24;4.00;3.12;0.76
78557;SPS30;68325;52.124;5.424;2024-01-16T03:52:01;1.20;1.10;0.89;0.60;4.79;4.78;4.72;4.44;3.43;0.77
78557;SPS30;68325;52.124;5.424;2024-01-16T03:54:28;1.72;1.57;1.27;0.86;6.88;6.86;6.78;6.38;4.93;0.76
78557;SPS30;68325;52.124;5.424;2024-01-16T03:56:55;2.04;1.88;1.56;1.10;8.84;8.82;8.73;8.30;6.56;0.72
78557;SPS30;68325;52.124;5.424;2024-01-16T03:59:22;1.77;1.65;1.41;1.06;8.47;8.45;8.39;8.06;6.52;0.67
78557;SPS30;68325;52.124;5.424;2024-01-16T04:01:49;1.41;1.33;1.17;0.91;7.32;7.31;7.27;7.03;5.79;0.65
78557;SPS30;68325;52.124;5.424;2024-01-16T04:04:16;1.21;1.16;1.05;0.87;6.94;6.93;6.90;6.74;5.65;0.62
78557;SPS30;68325;52.124;5.424;2024-01-16T04:06:42;1.23;1.18;1.09;0.91;7.31;7.30;7.27;7.12;6.00;0.61
78557;SPS30;68325;52.124;5.424;2024-01-16T04:09:09;1.31;1.25;1.14;0.96;7.64;7.64;7.61;7.44;6.25;0.64
78557;SPS30;68325;52.124;5.424;2024-01-16T04:11:36;1.11;1.07;0.97;0.80;6.43;6.42;6.39;6.25;5.24;0.63
78557;SPS30;68325;52.124;5.424;2024-01-16T04:14:03;1.23;1.17;1.05;0.86;6.87;6.86;6.83;6.66;5.55;0.64
78557;SPS30;68325;52.124;5.424;2024-01-16T04:16:30;1.21;1.15;1.02;0.82;6.59;6.58;6.54;6.36;5.28;0.64
78557;SPS30;68325;52.124;5.424;2024-01-16T04:18:57;1.09;1.03;0.92;0.74;5.96;5.95;5.92;5.76;4.79;0.65
78557;SPS30;68325;52.124;5.424;2024-01-16T04:21:24;1.10;1.05;0.94;0.76;6.09;6.09;6.06;5.90;4.91;0.65
78557;SPS30;68325;52.124;5.424;2024-01-16T04:23:50;1.16;1.09;0.96;0.76;6.07;6.06;6.02;5.84;4.81;0.67
78557;SPS30;68325;52.124;5.424;2024-01-16T04:26:17;1.04;0.98;0.85;0.66;5.30;5.29;5.26;5.08;4.17;0.68
78557;SPS30;68325;52.124;5.424;2024-01-16T04:28:44;1.15;1.07;0.93;0.71;5.71;5.70;5.66;5.46;4.45;0.69
78557;SPS30;68325;52.124;5.424;2024-01-16T04:31:11;1.08;1.01;0.87;0.65;5.24;5.23;5.19;4.99;4.05;0.70
78557;SPS30;68325;52.124;5.424;2024-01-16T04:33:38;1.28;1.19;1.01;0.75;6.00;5.99;5.94;5.69;4.58;0.72
78557;SPS30;68325;52.124;5.424;2024-01-16T04:36:05;1.31;1.21;1.02;0.75;6.00;5.99;5.94;5.68;4.55;0.74
78557;SPS30;68325;52.124;5.424;2024-01-16T04:38:33;1.58;1.47;1.23;0.90;7.21;7.20;7.13;6.82;5.45;0.74
78557;SPS30;68325;52.124;5.424;2024-01-16T04:41:02;1.48;1.37;1.15;0.84;6.77;6.76;6.70;6.41;5.13;0.72
78557;SPS30;68325;52.124;5.424;2024-01-16T04:43:29;1.55;1.45;1.24;0.93;7.47;7.46;7.40;7.11;5.76;0.69
78557;SPS30;68325;52.124;5.424;2024-01-16T04:45:56;1.57;1.47;1.26;0.95;7.63;7.62;7.56;7.27;5.90;0.70
78557;SPS30;68325;52.124;5.424;2024-01-16T04:48:27;1.40;1.31;1.14;0.87;7.00;6.99;6.95;6.70;5.48;0.69
78557;SPS30;68325;52.124;5.424;2024-01-16T04:50:53;1.66;1.56;1.35;1.04;8.31;8.30;8.24;7.95;6.50;0.68
78557;SPS30;68325;52.124;5.424;2024-01-16T04:53:20;1.66;1.57;1.39;1.10;8.80;8.79;8.74;8.47;7.00;0.66
78557;SPS30;68325;52.124;5.424;2024-01-16T04:55:47;1.43;1.35;1.21;0.97;7.77;7.76;7.72;7.50;6.23;0.65
78557;SPS30;68325;52.124;5.424;2024-01-16T04:58:14;1.53;1.46;1.30;1.06;8.46;8.45;8.41;8.18;6.81;0.65
78557;SPS30;68325;52.124;5.424;2024-01-16T05:00:40;1.54;1.47;1.32;1.09;8.69;8.68;8.64;8.43;7.05;0.64
78557;SPS30;68325;52.124;5.424;2024-01-16T05:03:07;1.52;1.45;1.32;1.09;8.75;8.74;8.70;8.50;7.13;0.64
78557;SPS30;68325;52.124;5.424;2024-01-16T05:05:34;1.55;1.49;1.36;1.14;9.09;9.08;9.05;8.85;7.45;0.63
78557;SPS30;68325;52.124;5.424;2024-01-16T05:08:01;1.58;1.53;1.40;1.19;9.51;9.50;9.47;9.28;7.84;0.61
78557;SPS30;68325;52.124;5.424;2024-01-16T05:10:29;1.58;1.52;1.40;1.19;9.50;9.49;9.45;9.27;7.83;0.59
78557;SPS30;68325;52.124;5.424;2024-01-16T05:12:56;1.61;1.55;1.44;1.23;9.83;9.82;9.79;9.61;8.14;0.59
78557;SPS30;68325;52.124;5.424;2024-01-16T05:15:23;1.84;1.78;1.66;1.43;11.45;11.44;11.41;11.22;9.53;0.59
78557;SPS30;68325;52.124;5.424;2024-01-16T05:17:50;1.88;1.83;1.72;1.51;12.04;12.03;12.00;11.82;10.08;0.58
78557;SPS30;68325;52.124;5.424;2024-01-16T05:20:17;1.71;1.67;1.59;1.41;11.29;11.28;11.26;11.12;9.52;0.57
78557;SPS30;68325;52.124;5.424;2024-01-16T05:22:43;1.81;1.77;1.70;1.52;12.16;12.15;12.13;11.99;10.29;0.57
78557;SPS30;68325;52.124;5.424;2024-01-16T05:25:10;1.98;1.94;1.86;1.66;13.28;13.27;13.25;13.10;11.24;0.59
78557;SPS30;68325;52.124;5.424;2024-01-16T05:27:37;2.07;2.02;1.94;1.73;13.84;13.84;13.81;13.65;11.71;0.59
78557;SPS30;68325;52.124;5.424;2024-01-16T05:30:03;2.16;2.12;2.03;1.81;14.49;14.48;14.45;14.29;12.26;0.59
78557;SPS30;68325;52.124;5.424;2024-01-16T05:32:31;2.19;2.15;2.06;1.84;14.74;14.73;14.70;14.54;12.48;0.59
78557;SPS30;68325;52.124;5.424;2024-01-16T05:34:57;2.43;2.38;2.28;2.04;16.28;16.27;16.24;16.06;13.78;0.60
78557;SPS30;68325;52.124;5.424;2024-01-16T05:37:24;2.25;2.23;2.17;1.99;15.93;15.92;15.91;15.78;13.64;0.56
78557;SPS30;68325;52.124;5.424;2024-01-16T05:39:51;2.35;2.34;2.31;2.16;17.23;17.22;17.21;17.12;14.86;0.54
78557;SPS30;68325;52.124;5.424;2024-01-16T05:42:17;2.33;2.32;2.30;2.15;17.19;17.19;17.18;17.09;14.85;0.54
78557;SPS30;68325;52.124;5.424;2024-01-16T05:44:44;2.41;2.41;2.40;2.27;18.13;18.13;18.12;18.05;15.73;0.53
78557;SPS30;68325;52.124;5.424;2024-01-16T05:47:11;2.40;2.40;2.40;2.26;18.08;18.08;18.08;18.01;15.69;0.53
78557;SPS30;68325;52.124;5.424;2024-01-16T05:49:37;2.46;2.46;2.46;2.32;18.51;18.51;18.50;18.43;16.05;0.53
78557;SPS30;68325;52.124;5.424;2024-01-16T05:52:04;2.77;2.77;2.76;2.61;20.84;20.84;20.83;20.75;18.07;0.53
78557;SPS30;68325;52.124;5.424;2024-01-16T05:54:31;2.73;2.72;2.72;2.57;20.48;20.48;20.47;20.39;17.75;0.53
78557;SPS30;68325;52.124;5.424;2024-01-16T05:56:57;2.71;2.71;2.71;2.56;20.44;20.44;20.43;20.36;17.74;0.51
78557;SPS30;68325;52.124;5.424;2024-01-16T05:59:24;2.72;2.72;2.72;2.57;20.55;20.54;20.54;20.46;17.83;0.51
78557;SPS30;68325;52.124;5.424;2024-01-16T06:01:51;2.74;2.74;2.74;2.59;20.70;20.70;20.69;20.62;17.96;0.52
78557;SPS30;68325;52.124;5.424;2024-01-16T06:04:18;2.72;2.72;2.72;2.57;20.48;20.48;20.48;20.40;17.77;0.53
78557;SPS30;68325;52.124;5.424;2024-01-16T06:06:45;2.91;2.91;2.90;2.73;21.76;21.76;21.75;21.65;18.84;0.54
78557;SPS30;68325;52.124;5.424;2024-01-16T06:09:14;3.11;3.09;3.05;2.85;22.72;22.72;22.70;22.58;19.59;0.57
78557;SPS30;68325;52.124;5.424;2024-01-16T06:11:41;2.94;2.93;2.91;2.73;21.82;21.82;21.81;21.71;18.88;0.54
78557;SPS30;68325;52.124;5.424;2024-01-16T06:14:08;2.93;2.93;2.93;2.77;22.14;22.13;22.13;22.05;19.21;0.51
78557;SPS30;68325;52.124;5.424;2024-01-16T06:16:35;3.15;3.15;3.15;2.97;23.75;23.74;23.74;23.65;20.60;0.52
78557;SPS30;68325;52.124;5.424;2024-01-16T06:19:02;3.05;3.05;3.04;2.87;22.94;22.94;22.93;22.84;19.89;0.53
78557;SPS30;68325;52.124;5.424;2024-01-16T06:21:29;3.14;3.14;3.13;2.95;23.57;23.56;23.56;23.46;20.43;0.53
78557;SPS30;68325;52.124;5.424;2024-01-16T06:23:56;3.34;3.33;3.33;3.14;25.06;25.05;25.05;24.95;21.72;0.53
78557;SPS30;68325;52.124;5.424;2024-01-16T06:26:23;3.29;3.29;3.29;3.11;24.83;24.82;24.82;24.73;21.55;0.51
78557;SPS30;68325;52.124;5.424;2024-01-16T06:28:50;2.79;2.79;2.79;2.64;21.09;21.08;21.08;21.00;18.30;0.50
78557;SPS30;68325;52.124;5.424;2024-01-16T06:31:16;3.00;3.00;3.00;2.84;22.66;22.66;22.66;22.57;19.67;0.49
78557;SPS30;68325;52.124;5.424;2024-01-16T06:33:44;3.22;3.22;3.22;3.05;24.32;24.32;24.31;24.23;21.11;0.48
78557;SPS30;68325;52.124;5.424;2024-01-16T06:36:11;3.31;3.31;3.31;3.13;25.00;25.00;24.99;24.90;21.69;0.50
78557;SPS30;68325;52.124;5.424;2024-01-16T06:38:38;3.65;3.65;3.65;3.45;27.52;27.52;27.51;27.42;23.89;0.49
78557;SPS30;68325;52.124;5.424;2024-01-16T06:41:06;3.11;3.11;3.11;2.94;23.47;23.46;23.46;23.37;20.36;0.49
78557;SPS30;68325;52.124;5.424;2024-01-16T06:43:33;2.74;2.74;2.74;2.59;20.67;20.67;20.67;20.59;17.94;0.48
78557;SPS30;68325;52.124;5.424;2024-01-16T06:46:00;2.37;2.37;2.37;2.24;17.90;17.90;17.90;17.83;15.54;0.50
78557;SPS30;68325;52.124;5.424;2024-01-16T06:48:27;2.36;2.36;2.36;2.23;17.80;17.80;17.79;17.73;15.45;0.51
78557;SPS30;68325;52.124;5.424;2024-01-16T06:50:54;2.30;2.30;2.30;2.17;17.35;17.35;17.35;17.28;15.06;0.51
78557;SPS30;68325;52.124;5.424;2024-01-16T06:53:20;2.39;2.39;2.39;2.26;18.03;18.02;18.02;17.96;15.64;0.49
78557;SPS30;68325;52.124;5.424;2024-01-16T06:55:47;2.20;2.20;2.20;2.08;16.58;16.58;16.58;16.52;14.39;0.47
78557;SPS30;68325;52.124;5.424;2024-01-16T06:58:14;2.47;2.47;2.47;2.33;18.64;18.64;18.63;18.56;16.17;0.49
78557;SPS30;68325;52.124;5.424;2024-01-16T07:00:41;2.94;2.94;2.94;2.78;22.20;22.19;22.19;22.11;19.26;0.48
78557;SPS30;68325;52.124;5.424;2024-01-16T07:03:08;2.36;2.36;2.36;2.23;17.81;17.81;17.80;17.74;15.46;0.49
78557;SPS30;68325;52.124;5.424;2024-01-16T07:05:34;2.61;2.61;2.61;2.47;19.72;19.72;19.72;19.64;17.12;0.51
78557;SPS30;68325;52.124;5.424;2024-01-16T07:08:01;2.84;2.84;2.84;2.69;21.48;21.47;21.47;21.39;18.64;0.51
78557;SPS30;68325;52.124;5.424;2024-01-16T07:10:28;4.53;4.53;4.53;4.29;34.22;34.22;34.21;34.08;29.70;0.50
78557;SPS30;68325;52.124;5.424;2024-01-16T07:12:54;4.95;4.95;4.95;4.68;37.39;37.39;37.38;37.24;32.45;0.48
78557;SPS30;68325;52.124;5.424;2024-01-16T07:15:22;5.32;5.32;5.32;5.03;40.13;40.12;40.12;39.97;34.82;0.50
78557;SPS30;68325;52.124;5.424;2024-01-16T07:17:49;5.64;5.64;5.64;5.33;42.55;42.54;42.53;42.38;36.92;0.49
78557;SPS30;68325;52.124;5.424;2024-01-16T07:20:16;6.18;6.18;6.18;5.84;46.63;46.62;46.61;46.44;40.46;0.50
78557;SPS30;68325;52.124;5.424;2024-01-16T07:22:42;6.37;6.37;6.37;6.02;48.08;48.08;48.07;47.89;41.72;0.52
78557;SPS30;68325;52.124;5.424;2024-01-16T07:25:09;6.80;6.79;6.76;6.37;50.84;50.83;50.82;50.60;44.04;0.54
78557;SPS30;68325;52.124;5.424;2024-01-16T07:27:36;7.13;7.11;7.08;6.66;53.15;53.14;53.12;52.88;46.01;0.53
78557;SPS30;68325;52.124;5.424;2024-01-16T07:30:06;7.90;7.87;7.80;7.29;58.23;58.21;58.18;57.88;50.28;0.55
78557;SPS30;68325;52.124;5.424;2024-01-16T07:32:33;8.21;8.18;8.11;7.60;60.69;60.68;60.65;60.35;52.45;0.56
78557;SPS30;68325;52.124;5.424;2024-01-16T07:35:01;9.06;9.02;8.95;8.37;66.87;66.85;66.82;66.48;57.76;0.55
78557;SPS30;68325;52.124;5.424;2024-01-16T07:37:29;9.07;9.02;8.93;8.34;66.60;66.59;66.55;66.19;57.48;0.55
78557;SPS30;68325;52.124;5.424;2024-01-16T07:39:56;8.96;8.94;8.90;8.36;66.78;66.77;66.74;66.45;57.81;0.54
78557;SPS30;68325;52.124;5.424;2024-01-16T07:42:22;8.85;8.81;8.73;8.16;65.14;65.13;65.09;64.75;56.24;0.56
78557;SPS30;68325;52.124;5.424;2024-01-16T07:44:49;9.35;9.30;9.19;8.57;68.43;68.42;68.37;67.99;59.02;0.57
78557;SPS30;68325;52.124;5.424;2024-01-16T07:47:16;9.18;9.14;9.05;8.47;67.62;67.61;67.57;67.22;58.40;0.55
78557;SPS30;68325;52.124;5.424;2024-01-16T07:49:42;9.43;9.40;9.32;8.72;69.66;69.64;69.61;69.26;60.19;0.56
78557;SPS30;68325;52.124;5.424;2024-01-16T07:52:10;10.04;9.98;9.85;9.17;73.21;73.19;73.14;72.71;63.09;0.58
78557;SPS30;68325;52.124;5.424;2024-01-16T07:54:38;9.53;9.46;9.33;8.68;69.30;69.28;69.23;68.82;59.69;0.58
78557;SPS30;68325;52.124;5.424;2024-01-16T07:57:04;9.63;9.58;9.48;8.85;70.66;70.64;70.60;70.22;60.97;0.56
78557;SPS30;68325;52.124;5.424;2024-01-16T07:59:31;8.94;8.91;8.86;8.32;66.40;66.38;66.36;66.05;57.44;0.55
78557;SPS30;68325;52.124;5.424;2024-01-16T08:01:58;9.08;9.05;8.99;8.44;67.35;67.34;67.31;66.99;58.25;0.55
78557;SPS30;68325;52.124;5.424;2024-01-16T08:04:25;8.93;8.89;8.81;8.25;65.84;65.83;65.79;65.46;56.87;0.55
78557;SPS30;68325;52.124;5.424;2024-01-16T08:06:52;8.50;8.45;8.36;7.79;62.22;62.20;62.17;61.82;53.66;0.56
78557;SPS30;68325;52.124;5.424;2024-01-16T08:09:19;8.64;8.60;8.52;7.96;63.53;63.51;63.47;63.14;54.83;0.56
78557;SPS30;68325;52.124;5.424;2024-01-16T08:11:46;8.77;8.73;8.65;8.08;64.55;64.54;64.50;64.17;55.73;0.58
78557;SPS30;68325;52.124;5.424;2024-01-16T08:14:13;9.08;9.03;8.94;8.35;66.64;66.62;66.59;66.23;57.51;0.57
78557;SPS30;68325;52.124;5.424;2024-01-16T08:16:40;8.39;8.39;8.37;7.91;63.13;63.11;63.10;62.86;54.74;0.53
78557;SPS30;68325;52.124;5.424;2024-01-16T08:19:07;8.31;8.31;8.31;7.85;62.66;62.65;62.64;62.41;54.36;0.53
78557;SPS30;68325;52.124;5.424;2024-01-16T08:21:34;8.39;8.37;8.34;7.85;62.69;62.67;62.65;62.39;54.29;0.55
78557;SPS30;68325;52.124;5.424;2024-01-16T08:24:00;7.80;7.78;7.75;7.28;58.16;58.15;58.12;57.87;50.34;0.57
78557;SPS30;68325;52.124;5.424;2024-01-16T08:26:27;8.27;8.26;8.24;7.77;62.07;62.06;62.05;61.80;53.81;0.55
78557;SPS30;68325;52.124;5.424;2024-01-16T08:28:54;8.17;8.17;8.16;7.71;61.57;61.56;61.54;61.32;53.41;0.53
78557;SPS30;68325;52.124;5.424;2024-01-16T08:31:21;8.18;8.17;8.16;7.70;61.47;61.46;61.44;61.20;53.29;0.54
78557;SPS30;68325;52.124;5.424;2024-01-16T08:33:48;8.00;8.00;7.99;7.55;60.31;60.30;60.29;60.06;52.32;0.52
78557;SPS30;68325;52.124;5.424;2024-01-16T08:36:18;7.16;7.16;7.15;6.76;53.97;53.96;53.95;53.75;46.83;0.52
78557;SPS30;68325;52.124;5.424;2024-01-16T08:38:45;7.58;7.58;7.57;7.14;57.01;57.00;56.98;56.76;49.43;0.54
78557;SPS30;68325;52.124;5.424;2024-01-16T08:41:12;7.17;7.17;7.16;6.76;53.98;53.97;53.96;53.75;46.81;0.53
78557;SPS30;68325;52.124;5.424;2024-01-16T08:43:39;6.96;6.96;6.96;6.58;52.56;52.55;52.54;52.35;45.61;0.51
78557;SPS30;68325;52.124;5.424;2024-01-16T08:46:05;6.58;6.58;6.57;6.21;49.57;49.57;49.55;49.37;43.00;0.54
78557;SPS30;68325;52.124;5.424;2024-01-16T08:48:33;6.39;6.38;6.36;5.99;47.85;47.84;47.82;47.62;41.45;0.55
78557;SPS30;68325;52.124;5.424;2024-01-16T08:51:00;6.29;6.28;6.27;5.91;47.17;47.16;47.15;46.96;40.88;0.53
78557;SPS30;68325;52.124;5.424;2024-01-16T08:53:29;6.22;6.22;6.22;5.89;46.99;46.98;46.97;46.80;40.77;0.52
78557;SPS30;68325;52.124;5.424;2024-01-16T08:55:57;5.94;5.93;5.93;5.60;44.69;44.68;44.67;44.50;38.75;0.53
78557;SPS30;68325;52.124;5.424;2024-01-16T08:58:23;5.59;5.59;5.58;5.27;42.11;42.11;42.10;41.94;36.53;0.52
78557;SPS30;68325;52.124;5.424;2024-01-16T09:00:50;5.30;5.30;5.29;4.99;39.87;39.87;39.86;39.70;34.58;0.53
78557;SPS30;68325;52.124;5.424;2024-01-16T09:03:17;5.49;5.49;5.48;5.17;41.29;41.28;41.27;41.11;35.80;0.54
78557;SPS30;68325;52.124;5.424;2024-01-16T09:05:44;5.19;5.19;5.18;4.88;38.99;38.98;38.97;38.82;33.80;0.54
78557;SPS30;68325;52.124;5.424;2024-01-16T09:08:11;5.25;5.24;5.23;4.94;39.45;39.44;39.43;39.28;34.21;0.53
78557;SPS30;68325;52.124;5.424;2024-01-16T09:10:39;5.11;5.09;5.05;4.73;37.78;37.77;37.76;37.57;32.65;0.54
78557;SPS30;68325;52.124;5.424;2024-01-16T09:13:06;5.25;5.25;5.24;4.96;39.60;39.59;39.58;39.44;34.36;0.51
78557;SPS30;68325;52.124;5.424;2024-01-16T09:15:33;4.88;4.88;4.88;4.62;36.86;36.85;36.84;36.71;31.98;0.52
78557;SPS30;68325;52.124;5.424;2024-01-16T09:18:00;5.11;5.09;5.07;4.76;38.01;38.01;37.99;37.82;32.90;0.54